Time;durP1;ratioP1;P1;durP2;ratioP2;P2;SDS_P1;SDS_P2;PMS_P1;PMS_P2;Temp;Humidity;BMP_temperature;BMP_pressure;BME280_temperature;BME280_humidity;BME280_pressure;Samples;Min_cycle;Max_cycle;Signal;HPM_P1;HPM_P2
2023/12/12 00:01:01;;;;;;;0.47;0.40;;;7.30;99.90;;;;;;5041275;28;20111;-73
2023/12/12 00:03:26;;;;;;;0.75;0.40;;;7.30;99.90;;;;;;5041085;28;20056;-72
2023/12/12 00:05:52;;;;;;;0.65;0.65;;;7.20;99.90;;;;;;5040842;28;20514;-71
2023/12/12 00:08:17;;;;;;;0.55;0.50;;;7.20;99.90;;;;;;5041190;28;20029;-72
2023/12/12 00:10:43;;;;;;;0.50;0.30;;;7.20;99.90;;;;;;5035215;28;20041;-72
2023/12/12 00:13:08;;;;;;;1.17;0.38;;;7.20;99.90;;;;;;5040625;28;20029;-72
2023/12/12 00:15:34;;;;;;;0.70;0.60;;;7.20;99.90;;;;;;5042495;28;20037;-72
2023/12/12 00:17:59;;;;;;;0.40;0.40;;;7.20;99.90;;;;;;5038417;28;20391;-72
2023/12/12 00:20:25;;;;;;;1.30;0.77;;;7.20;99.90;;;;;;5040930;28;20091;-72
2023/12/12 00:22:50;;;;;;;0.40;0.40;;;7.20;99.90;;;;;;5040539;28;20510;-72
2023/12/12 00:25:16;;;;;;;0.60;0.60;;;7.20;99.90;;;;;;5040229;28;20032;-72
2023/12/12 00:27:41;;;;;;;0.52;0.52;;;7.30;99.90;;;;;;5040533;28;20025;-72
2023/12/12 00:30:07;;;;;;;0.70;0.70;;;7.30;99.90;;;;;;5042249;28;20198;-72
2023/12/12 00:32:34;;;;;;;0.95;0.70;;;7.30;99.90;;;;;;5040729;28;20051;-72
2023/12/12 00:34:59;;;;;;;0.70;0.70;;;7.30;99.90;;;;;;5040276;28;20045;-72
2023/12/12 00:37:25;;;;;;;2.03;0.68;;;7.30;99.90;;;;;;5035924;28;20028;-72
2023/12/12 00:39:50;;;;;;;0.63;0.60;;;7.30;99.90;;;;;;5031956;28;20026;-72
2023/12/12 00:42:16;;;;;;;1.00;0.70;;;7.30;99.90;;;;;;5035197;28;20029;-72
2023/12/12 00:44:41;;;;;;;1.00;0.90;;;7.30;99.90;;;;;;5032907;28;20084;-71
2023/12/12 00:47:07;;;;;;;2.78;1.20;;;7.30;99.90;;;;;;5033864;28;20080;-72
2023/12/12 00:49:32;;;;;;;1.63;0.80;;;7.30;99.90;;;;;;5036182;28;20025;-73
2023/12/12 00:51:58;;;;;;;1.10;1.00;;;7.30;99.90;;;;;;5035955;28;20021;-73
2023/12/12 00:54:23;;;;;;;1.75;1.30;;;7.30;99.90;;;;;;5034688;28;20487;-73
2023/12/12 00:56:49;;;;;;;1.67;1.10;;;7.30;99.90;;;;;;5035000;28;20075;-72
2023/12/12 00:59:15;;;;;;;1.77;1.20;;;7.30;99.90;;;;;;5037219;28;20025;-73
2023/12/12 01:01:41;;;;;;;1.35;1.25;;;7.30;99.90;;;;;;5033787;28;20533;-73
2023/12/12 01:04:08;;;;;;;2.03;1.40;;;7.30;99.90;;;;;;5033695;28;20057;-72
2023/12/12 01:06:33;;;;;;;1.60;1.40;;;7.30;99.90;;;;;;5031085;28;20021;-73
2023/12/12 01:08:59;;;;;;;1.80;1.40;;;7.30;99.90;;;;;;5033651;28;20029;-72
2023/12/12 01:11:24;;;;;;;2.25;1.67;;;7.30;99.90;;;;;;5038034;28;20441;-72
2023/12/12 01:13:50;;;;;;;3.22;1.67;;;7.30;99.90;;;;;;5035574;28;20108;-72
2023/12/12 01:16:15;;;;;;;3.35;1.65;;;7.20;99.90;;;;;;5033300;28;20526;-73
2023/12/12 01:18:41;;;;;;;1.83;1.50;;;7.20;99.90;;;;;;5035298;28;20422;-73
2023/12/12 01:21:06;;;;;;;2.20;1.70;;;7.20;99.90;;;;;;5030064;28;20030;-73
2023/12/12 01:23:52;;;;;;;3.63;1.70;;;7.20;99.90;;;;;;5035643;28;20025;-73
2023/12/12 01:26:19;;;;;;;2.50;1.70;;;7.20;99.90;;;;;;5033819;28;20025;-73
2023/12/12 01:28:45;;;;;;;2.72;1.80;;;7.20;99.90;;;;;;5033418;28;20029;-73
2023/12/12 01:31:10;;;;;;;3.20;1.88;;;7.10;99.90;;;;;;5032648;28;20032;-73
2023/12/12 01:33:36;;;;;;;2.75;1.50;;;7.10;99.90;;;;;;5032810;28;20211;-73
2023/12/12 01:36:02;;;;;;;1.85;1.40;;;7.10;99.90;;;;;;5031629;28;20025;-65
2023/12/12 01:38:27;;;;;;;3.58;1.95;;;7.10;99.90;;;;;;5033944;28;20074;-73
2023/12/12 01:40:53;;;;;;;1.38;1.20;;;7.10;99.90;;;;;;5046071;28;20234;-72
2023/12/12 01:43:26;;;;;;;3.35;1.88;;;7.10;99.90;;;;;;5029711;28;20078;-73
2023/12/12 01:45:54;;;;;;;3.25;1.60;;;7.10;99.90;;;;;;5031990;28;20033;-73
2023/12/12 01:48:20;;;;;;;2.17;1.80;;;7.00;99.90;;;;;;5041319;28;20021;-72
2023/12/12 01:50:46;;;;;;;4.10;2.15;;;7.00;99.90;;;;;;5029804;28;20024;-73
2023/12/12 01:53:13;;;;;;;2.13;1.60;;;7.00;99.90;;;;;;5033587;28;20034;-72
2023/12/12 01:55:39;;;;;;;1.77;1.42;;;7.00;99.90;;;;;;5037513;28;20044;-72
2023/12/12 01:58:05;;;;;;;2.15;1.60;;;7.00;99.90;;;;;;5036507;28;20033;-72
2023/12/12 02:00:31;;;;;;;2.25;1.85;;;7.00;99.90;;;;;;5038810;28;20521;-72
2023/12/12 02:02:57;;;;;;;2.17;1.83;;;6.90;99.90;;;;;;5041102;28;20029;-72
2023/12/12 02:05:25;;;;;;;2.63;1.98;;;6.90;99.90;;;;;;5039013;28;20106;-73
2023/12/12 02:07:52;;;;;;;3.22;1.70;;;6.90;99.90;;;;;;5036071;28;20026;-73
2023/12/12 02:10:19;;;;;;;2.33;1.60;;;6.80;99.90;;;;;;5038110;28;20036;-72
2023/12/12 02:12:44;;;;;;;2.47;1.67;;;6.80;99.90;;;;;;5042849;28;20032;-73
2023/12/12 02:15:10;;;;;;;2.15;1.55;;;6.80;99.90;;;;;;5043117;28;20032;-73
2023/12/12 02:17:35;;;;;;;2.10;1.60;;;6.80;99.90;;;;;;5042901;28;20059;-72
2023/12/12 02:20:01;;;;;;;2.63;1.23;;;6.80;99.90;;;;;;5044866;28;20378;-73
2023/12/12 02:22:26;;;;;;;2.58;1.77;;;6.80;99.90;;;;;;5042950;28;20027;-73
2023/12/12 02:24:52;;;;;;;2.15;1.60;;;6.80;99.90;;;;;;5042766;28;20514;-72
2023/12/12 02:27:18;;;;;;;2.00;1.50;;;6.80;99.90;;;;;;5042900;28;20035;-73
2023/12/12 02:29:44;;;;;;;2.40;1.85;;;6.80;99.90;;;;;;5037265;28;20025;-72
2023/12/12 02:32:09;;;;;;;2.47;1.73;;;6.80;99.90;;;;;;5033187;28;20419;-73
2023/12/12 02:34:35;;;;;;;3.20;1.63;;;6.80;99.90;;;;;;5039687;28;20486;-76
2023/12/12 02:37:00;;;;;;;1.95;1.52;;;6.80;99.90;;;;;;5036429;28;20025;-73
2023/12/12 02:39:26;;;;;;;2.95;1.95;;;6.70;99.90;;;;;;5040357;28;20029;-73
2023/12/12 02:41:51;;;;;;;3.03;2.13;;;6.70;99.90;;;;;;5040707;28;20091;-73
2023/12/12 02:44:16;;;;;;;2.88;1.85;;;6.70;99.90;;;;;;5042688;28;20108;-72
2023/12/12 02:46:42;;;;;;;3.08;2.00;;;6.70;99.90;;;;;;5042019;28;20486;-72
2023/12/12 02:49:07;;;;;;;3.28;2.30;;;6.60;99.90;;;;;;5035245;28;20029;-73
2023/12/12 02:51:33;;;;;;;3.28;2.08;;;6.60;99.90;;;;;;5035757;28;20067;-73
2023/12/12 02:53:59;;;;;;;2.40;1.98;;;6.60;99.90;;;;;;5036970;28;20047;-73
2023/12/12 02:56:24;;;;;;;3.05;1.95;;;6.60;99.90;;;;;;5034113;28;20040;-73
2023/12/12 02:58:50;;;;;;;2.28;1.85;;;6.60;99.90;;;;;;5037337;28;20074;-72
2023/12/12 03:01:15;;;;;;;2.67;1.85;;;6.50;99.90;;;;;;5034661;28;20521;-72
2023/12/12 03:03:40;;;;;;;3.03;1.80;;;6.50;99.90;;;;;;5040486;28;20292;-73
2023/12/12 03:06:07;;;;;;;2.88;1.90;;;6.50;99.90;;;;;;5035238;28;20483;-74
2023/12/12 03:08:33;;;;;;;3.00;1.98;;;6.50;99.90;;;;;;5035014;28;20525;-74
2023/12/12 03:10:58;;;;;;;4.55;2.17;;;6.50;99.90;;;;;;5037883;28;20102;-72
2023/12/12 03:13:24;;;;;;;3.03;1.95;;;6.40;99.90;;;;;;5037214;28;20505;-72
2023/12/12 03:15:49;;;;;;;3.30;1.90;;;6.40;99.90;;;;;;5036160;28;20491;-73
2023/12/12 03:18:15;;;;;;;4.80;2.20;;;6.30;99.90;;;;;;5027674;28;20104;-73
2023/12/12 03:20:40;;;;;;;4.05;2.30;;;6.30;99.90;;;;;;5037374;28;20017;-72
2023/12/12 03:23:05;;;;;;;4.38;1.92;;;6.30;99.90;;;;;;5041695;28;20490;-73
2023/12/12 03:25:31;;;;;;;4.40;2.20;;;6.30;99.90;;;;;;5041586;28;20040;-73
2023/12/12 03:27:57;;;;;;;2.80;1.83;;;6.20;99.90;;;;;;5040327;28;20217;-72
2023/12/12 03:30:22;;;;;;;2.53;1.80;;;6.20;99.90;;;;;;5043436;28;20197;-73
2023/12/12 03:32:47;;;;;;;3.85;2.25;;;6.10;99.90;;;;;;5041851;28;20032;-72
2023/12/12 03:35:13;;;;;;;5.22;2.10;;;6.10;99.90;;;;;;5041352;28;20387;-72
2023/12/12 03:37:38;;;;;;;4.00;1.95;;;6.10;99.90;;;;;;5038657;28;20036;-72
2023/12/12 03:40:05;;;;;;;3.88;2.25;;;6.00;99.90;;;;;;5041276;28;20486;-72
2023/12/12 03:42:30;;;;;;;3.85;1.95;;;6.00;99.90;;;;;;5040703;28;20033;-72
2023/12/12 03:44:55;;;;;;;2.83;1.90;;;5.90;99.90;;;;;;5039251;28;20370;-71
2023/12/12 03:47:21;;;;;;;2.92;2.20;;;5.90;99.90;;;;;;5033029;28;20399;-68
2023/12/12 03:49:46;;;;;;;4.28;2.10;;;5.90;99.90;;;;;;5034994;28;20036;-69
2023/12/12 03:52:12;;;;;;;4.18;2.40;;;5.90;99.90;;;;;;5035451;28;20121;-69
2023/12/12 03:54:37;;;;;;;4.47;1.88;;;5.90;99.90;;;;;;5032878;28;20042;-69
2023/12/12 03:57:03;;;;;;;3.13;1.65;;;5.90;99.90;;;;;;5035284;28;20068;-69
2023/12/12 03:59:28;;;;;;;3.47;2.20;;;5.90;99.90;;;;;;5038119;28;20120;-69
2023/12/12 04:01:54;;;;;;;5.85;2.47;;;5.90;99.90;;;;;;5040573;28;20371;-69
2023/12/12 04:04:19;;;;;;;5.40;2.38;;;5.90;99.90;;;;;;5040876;28;20064;-69
2023/12/12 04:06:46;;;;;;;5.90;2.53;;;5.90;99.90;;;;;;5041069;28;20029;-70
2023/12/12 04:09:12;;;;;;;5.43;2.22;;;6.00;99.90;;;;;;5040725;28;20159;-69
2023/12/12 04:11:38;;;;;;;2.63;1.80;;;6.00;99.90;;;;;;5040997;28;20478;-69
2023/12/12 04:14:03;;;;;;;5.60;2.38;;;6.00;99.90;;;;;;5040612;28;20041;-68
2023/12/12 04:16:29;;;;;;;3.92;2.40;;;6.00;99.90;;;;;;5042087;28;20036;-69
2023/12/12 04:18:54;;;;;;;3.60;2.30;;;6.00;99.90;;;;;;5041196;28;20029;-69
2023/12/12 04:21:20;;;;;;;4.00;2.42;;;6.10;99.90;;;;;;5031607;28;20036;-69
2023/12/12 04:23:45;;;;;;;5.28;2.20;;;6.10;99.90;;;;;;5040677;28;20509;-68
2023/12/12 04:26:12;;;;;;;3.13;1.95;;;6.20;99.90;;;;;;5038887;28;20048;-69
2023/12/12 04:28:38;;;;;;;4.25;2.28;;;6.20;99.90;;;;;;5040571;28;20483;-68
2023/12/12 04:31:04;;;;;;;4.22;1.98;;;6.20;99.90;;;;;;5042356;28;20032;-69
2023/12/12 04:33:30;;;;;;;3.60;1.90;;;6.20;99.90;;;;;;5038302;28;20390;-69
2023/12/12 04:35:55;;;;;;;4.75;2.40;;;6.20;99.90;;;;;;5040320;28;20027;-68
2023/12/12 04:38:21;;;;;;;5.53;2.38;;;6.20;99.90;;;;;;5033919;28;20583;-69
2023/12/12 04:40:46;;;;;;;3.55;1.83;;;6.20;99.90;;;;;;5033578;28;20035;-61
2023/12/12 04:43:12;;;;;;;4.90;2.20;;;6.20;99.90;;;;;;5035104;28;20510;-62
2023/12/12 04:45:37;;;;;;;4.18;2.40;;;6.20;99.90;;;;;;5036408;28;20052;-61
2023/12/12 04:48:03;;;;;;;3.70;2.33;;;6.30;99.90;;;;;;5040852;28;20040;-62
2023/12/12 04:50:28;;;;;;;5.20;2.47;;;6.30;99.90;;;;;;5040456;28;20032;-62
2023/12/12 04:52:54;;;;;;;6.20;2.10;;;6.30;99.90;;;;;;5037561;28;20033;-62
2023/12/12 04:55:19;;;;;;;4.40;2.30;;;6.30;99.90;;;;;;5038943;28;20095;-62
2023/12/12 04:57:45;;;;;;;4.68;2.08;;;6.30;99.90;;;;;;5040002;28;20037;-62
2023/12/12 05:00:13;;;;;;;3.83;2.00;;;6.30;99.90;;;;;;5040232;28;20064;-62
2023/12/12 05:02:41;;;;;;;5.85;2.67;;;6.30;99.90;;;;;;5042120;28;20040;-62
2023/12/12 05:05:07;;;;;;;7.18;2.90;;;6.30;99.90;;;;;;5038376;28;20086;-62
2023/12/12 05:07:33;;;;;;;8.23;5.28;;;6.30;99.90;;;;;;5038654;28;20459;-63
2023/12/12 05:09:59;;;;;;;13.30;7.28;;;6.30;99.90;;;;;;5038700;28;20657;-62
2023/12/12 05:12:25;;;;;;;13.98;6.95;;;6.30;99.90;;;;;;5040168;28;20053;-62
2023/12/12 05:14:50;;;;;;;12.35;6.55;;;6.30;99.90;;;;;;5040180;28;20028;-63
2023/12/12 05:17:16;;;;;;;11.73;6.72;;;6.30;99.90;;;;;;5031332;28;20033;-63
2023/12/12 05:19:42;;;;;;;10.52;5.97;;;6.30;99.90;;;;;;5037792;28;20040;-62
2023/12/12 05:22:07;;;;;;;7.68;4.60;;;6.30;99.90;;;;;;5036204;28;20021;-65
2023/12/12 05:24:33;;;;;;;8.80;5.40;;;6.30;99.90;;;;;;5039787;28;20024;-63
2023/12/12 05:26:58;;;;;;;9.93;6.05;;;6.30;99.90;;;;;;5033896;28;20075;-62
2023/12/12 05:29:24;;;;;;;11.23;5.13;;;6.20;99.90;;;;;;5039909;28;20017;-62
2023/12/12 05:31:50;;;;;;;9.60;4.90;;;6.20;99.90;;;;;;5039927;28;20128;-63
2023/12/12 05:34:15;;;;;;;9.23;5.78;;;6.20;99.90;;;;;;5041533;28;20555;-62
2023/12/12 05:36:41;;;;;;;8.75;5.28;;;6.30;99.90;;;;;;5034643;28;20376;-62
2023/12/12 05:39:09;;;;;;;7.75;4.32;;;6.20;99.90;;;;;;5031826;28;20105;-63
2023/12/12 05:41:35;;;;;;;5.10;3.60;;;6.20;99.90;;;;;;5032962;28;20029;-62
2023/12/12 05:44:01;;;;;;;6.72;4.50;;;6.20;99.90;;;;;;5038536;28;20029;-62
2023/12/12 05:46:26;;;;;;;7.28;3.75;;;6.20;99.90;;;;;;5035930;28;20083;-62
2023/12/12 05:48:52;;;;;;;7.63;4.10;;;6.20;99.90;;;;;;5035982;28;20025;-62
2023/12/12 05:51:17;;;;;;;7.55;4.40;;;6.30;99.90;;;;;;5031683;28;20364;-61
2023/12/12 05:53:43;;;;;;;8.70;4.35;;;6.30;99.90;;;;;;5033510;28;20112;-63
2023/12/12 05:56:08;;;;;;;6.15;4.00;;;6.30;99.90;;;;;;5034924;28;20045;-62
2023/12/12 05:58:34;;;;;;;7.25;3.72;;;6.30;99.90;;;;;;5034108;28;20033;-62
2023/12/12 06:00:59;;;;;;;6.80;3.90;;;6.30;99.90;;;;;;5031988;28;20090;-62
2023/12/12 06:03:25;;;;;;;5.55;3.70;;;6.30;99.90;;;;;;5029877;28;20017;-62
2023/12/12 06:05:50;;;;;;;9.02;4.30;;;6.30;99.90;;;;;;5034426;28;20166;-63
2023/12/12 06:08:16;;;;;;;5.82;3.40;;;6.30;99.90;;;;;;5031959;28;20045;-62
2023/12/12 06:10:42;;;;;;;8.50;4.55;;;6.30;99.90;;;;;;5037433;28;20601;-62
2023/12/12 06:13:08;;;;;;;4.50;3.17;;;6.30;99.90;;;;;;5033066;28;20033;-62
2023/12/12 06:15:33;;;;;;;7.72;4.22;;;6.30;99.90;;;;;;5034305;28;20132;-62
2023/12/12 06:17:59;;;;;;;8.48;4.35;;;6.30;99.90;;;;;;5032814;28;20061;-63
2023/12/12 06:20:25;;;;;;;8.38;4.28;;;6.30;99.90;;;;;;5037616;28;20083;-62
2023/12/12 06:22:50;;;;;;;5.95;3.97;;;6.30;99.90;;;;;;5034469;28;20103;-62
2023/12/12 06:25:16;;;;;;;9.63;4.38;;;6.30;99.90;;;;;;5035553;28;20032;-62
2023/12/12 06:27:41;;;;;;;8.00;4.28;;;6.30;99.90;;;;;;5035651;28;20029;-62
2023/12/12 06:30:07;;;;;;;9.85;4.85;;;6.40;99.90;;;;;;5033404;28;20013;-62
2023/12/12 06:32:33;;;;;;;7.82;4.47;;;6.40;99.90;;;;;;5038940;28;20048;-62
2023/12/12 06:34:59;;;;;;;9.00;4.72;;;6.40;99.90;;;;;;5038221;28;20380;-62
2023/12/12 06:37:25;;;;;;;10.57;4.35;;;6.40;99.90;;;;;;5033458;28;20053;-62
2023/12/12 06:39:51;;;;;;;7.82;4.63;;;6.40;99.90;;;;;;5034335;28;20520;-63
2023/12/12 06:42:17;;;;;;;12.10;5.25;;;6.50;99.90;;;;;;5040882;28;20083;-62
2023/12/12 06:44:42;;;;;;;10.88;5.13;;;6.40;99.90;;;;;;5040893;28;20425;-62
2023/12/12 06:47:09;;;;;;;8.23;4.15;;;6.40;99.90;;;;;;5034192;28;20018;-62
2023/12/12 06:49:34;;;;;;;6.82;3.95;;;6.40;99.90;;;;;;5041238;28;20079;-62
2023/12/12 06:52:01;;;;;;;5.50;4.00;;;6.40;99.90;;;;;;5033086;28;20574;-63
2023/12/12 06:54:27;;;;;;;7.53;3.55;;;6.40;99.90;;;;;;5034968;28;20033;-62
2023/12/12 06:56:52;;;;;;;6.35;3.60;;;6.40;99.90;;;;;;5035781;28;20076;-62
2023/12/12 06:59:17;;;;;;;6.05;3.70;;;6.40;99.90;;;;;;5037819;28;20135;-62
2023/12/12 07:01:43;;;;;;;11.50;4.72;;;6.40;99.90;;;;;;5035363;28;20020;-62
2023/12/12 07:04:09;;;;;;;7.35;4.10;;;6.50;99.90;;;;;;5033434;28;20097;-62
2023/12/12 07:06:34;;;;;;;7.93;4.57;;;6.50;99.90;;;;;;5035345;28;20040;-63
2023/12/12 07:09:00;;;;;;;8.07;3.47;;;6.50;99.90;;;;;;5035888;28;20021;-62
2023/12/12 07:11:25;;;;;;;7.10;3.53;;;6.50;99.90;;;;;;5036756;28;20479;-62
2023/12/12 07:13:51;;;;;;;10.10;4.05;;;6.50;99.90;;;;;;5038417;28;20059;-62
2023/12/12 07:16:17;;;;;;;7.82;3.75;;;6.50;99.90;;;;;;5036857;28;20021;-62
2023/12/12 07:18:42;;;;;;;8.10;3.90;;;6.50;99.90;;;;;;5033919;28;20116;-63
2023/12/12 07:21:08;;;;;;;8.65;4.00;;;6.60;99.90;;;;;;5037106;28;20032;-62
2023/12/12 07:23:34;;;;;;;8.82;4.25;;;6.60;99.90;;;;;;5034615;28;20101;-62
2023/12/12 07:26:00;;;;;;;9.90;4.30;;;6.70;99.90;;;;;;5036942;28;20025;-62
2023/12/12 07:28:26;;;;;;;9.05;4.35;;;6.70;99.90;;;;;;5034747;28;20373;-63
2023/12/12 07:30:53;;;;;;;8.40;3.75;;;6.70;99.90;;;;;;5034364;28;20821;-62
2023/12/12 07:33:18;;;;;;;6.70;3.25;;;6.70;99.90;;;;;;5039720;28;20017;-63
2023/12/12 07:35:44;;;;;;;8.18;4.07;;;6.70;99.90;;;;;;5034739;28;20037;-62
2023/12/12 07:38:10;;;;;;;6.90;3.92;;;6.70;99.90;;;;;;5037187;28;20036;-63
2023/12/12 07:40:36;;;;;;;8.23;3.63;;;6.70;99.90;;;;;;5039594;28;20025;-63
2023/12/12 07:43:01;;;;;;;7.30;3.83;;;6.70;99.90;;;;;;5037396;28;20057;-62
2023/12/12 07:45:26;;;;;;;8.73;4.03;;;6.70;99.90;;;;;;5035023;28;20031;-75
2023/12/12 07:47:52;;;;;;;8.55;4.55;;;6.70;99.90;;;;;;5035199;28;20359;-74
2023/12/12 07:50:17;;;;;;;14.98;5.93;;;6.70;99.90;;;;;;5040317;28;20106;-75
2023/12/12 07:52:44;;;;;;;9.70;5.32;;;6.70;99.90;;;;;;5036808;28;20029;-74
2023/12/12 07:55:09;;;;;;;11.02;5.72;;;6.70;99.90;;;;;;5037920;28;20075;-74
2023/12/12 07:57:36;;;;;;;9.05;4.95;;;6.70;99.90;;;;;;5037225;28;20037;-73
2023/12/12 08:00:05;;;;;;;6.88;4.43;;;6.70;99.90;;;;;;5039490;28;20059;-74
2023/12/12 08:02:31;;;;;;;6.22;3.88;;;6.70;99.90;;;;;;5040185;28;20051;-74
2023/12/12 08:04:57;;;;;;;7.03;4.30;;;6.60;99.90;;;;;;5039868;28;20478;-74
2023/12/12 08:07:22;;;;;;;5.53;3.47;;;6.60;99.90;;;;;;5037584;28;20048;-77
2023/12/12 08:09:48;;;;;;;5.05;3.13;;;6.60;99.90;;;;;;5036656;28;20039;-74
2023/12/12 08:12:13;;;;;;;4.32;2.80;;;6.60;99.90;;;;;;5038405;28;20045;-76
2023/12/12 08:14:40;;;;;;;4.80;3.05;;;6.70;99.90;;;;;;5036992;28;20048;-72
2023/12/12 08:17:06;;;;;;;4.82;2.85;;;6.70;99.90;;;;;;5040613;28;20025;-72
2023/12/12 08:19:32;;;;;;;4.65;2.88;;;6.70;99.90;;;;;;5041308;28;20371;-73
2023/12/12 08:21:58;;;;;;;5.72;2.38;;;6.70;99.90;;;;;;5039777;28;20028;-73
2023/12/12 08:24:24;;;;;;;5.95;2.50;;;6.80;99.90;;;;;;5040170;28;20025;-73
2023/12/12 08:26:49;;;;;;;5.30;2.63;;;6.80;99.90;;;;;;5040493;28;20036;-73
2023/12/12 08:29:15;;;;;;;4.82;2.60;;;6.80;99.90;;;;;;5040408;28;20032;-72
2023/12/12 08:31:41;;;;;;;5.47;2.47;;;6.80;99.90;;;;;;5036320;28;20044;-72
2023/12/12 08:34:07;;;;;;;5.68;2.67;;;6.90;99.90;;;;;;5039281;28;20111;-71
2023/12/12 08:36:33;;;;;;;4.57;2.90;;;6.90;99.90;;;;;;5039008;28;20434;-73
2023/12/12 08:39:00;;;;;;;4.30;2.42;;;6.90;99.90;;;;;;5040139;28;20045;-72
2023/12/12 08:41:31;;;;;;;4.15;2.67;;;6.90;99.90;;;;;;5040439;28;20108;-72
2023/12/12 08:43:57;;;;;;;3.47;2.33;;;6.90;99.90;;;;;;5038851;28;20031;-72
2023/12/12 08:46:26;;;;;;;4.88;3.10;;;6.90;99.90;;;;;;5038631;28;20324;-72
2023/12/12 08:48:53;;;;;;;5.78;2.63;;;6.90;99.90;;;;;;5040213;28;20100;-72
2023/12/12 08:51:19;;;;;;;4.15;2.70;;;7.00;99.90;;;;;;5038841;28;20139;-72
2023/12/12 08:53:44;;;;;;;4.32;2.55;;;7.00;99.90;;;;;;5040175;28;20044;-72
2023/12/12 08:56:14;;;;;;;7.10;3.20;;;7.00;99.90;;;;;;5041658;28;20558;-72
2023/12/12 08:58:40;;;;;;;6.40;2.78;;;7.00;99.90;;;;;;5037770;28;20021;-72
2023/12/12 09:01:05;;;;;;;5.35;3.08;;;7.10;99.90;;;;;;5039854;28;20047;-72
2023/12/12 09:03:31;;;;;;;6.30;3.40;;;7.10;99.90;;;;;;5039857;28;20039;-72
2023/12/12 09:05:56;;;;;;;5.05;3.50;;;7.10;99.90;;;;;;5039944;28;20433;-72
2023/12/12 09:08:22;;;;;;;4.50;2.90;;;7.10;99.90;;;;;;5039682;28;20029;-72
2023/12/12 09:10:48;;;;;;;6.50;3.35;;;7.10;99.90;;;;;;5039859;28;20444;-72
2023/12/12 09:13:13;;;;;;;5.63;3.40;;;7.10;99.90;;;;;;5038560;28;20048;-72
2023/12/12 09:15:39;;;;;;;4.85;2.58;;;7.10;99.90;;;;;;5036992;28;20041;-72
2023/12/12 09:18:05;;;;;;;5.00;2.78;;;7.10;99.90;;;;;;5038296;28;20074;-71
2023/12/12 09:20:30;;;;;;;4.60;2.92;;;7.10;99.90;;;;;;5039728;28;20037;-73
2023/12/12 09:22:56;;;;;;;6.20;3.28;;;7.10;99.90;;;;;;5039759;28;20021;-72
2023/12/12 09:25:21;;;;;;;5.68;3.45;;;7.10;99.90;;;;;;5039574;28;20031;-71
2023/12/12 09:27:47;;;;;;;9.57;4.95;;;7.00;99.90;;;;;;5041457;28;20032;-73
2023/12/12 09:30:12;;;;;;;8.82;4.47;;;7.00;99.90;;;;;;5039573;28;20052;-72
2023/12/12 09:32:38;;;;;;;5.93;4.15;;;7.00;99.90;;;;;;5039548;28;20100;-73
2023/12/12 09:35:04;;;;;;;8.25;4.80;;;7.00;99.90;;;;;;5034416;28;20044;-72
2023/12/12 09:37:29;;;;;;;8.55;4.53;;;7.00;99.90;;;;;;5035009;28;20032;-72
2023/12/12 09:39:55;;;;;;;5.68;3.30;;;7.00;99.90;;;;;;5040732;28;20035;-72
2023/12/12 09:42:23;;;;;;;6.05;3.92;;;7.00;99.90;;;;;;5041416;28;20177;-72
2023/12/12 09:44:59;;;;;;;6.63;4.18;;;7.00;99.90;;;;;;5039510;28;20049;-72
2023/12/12 09:47:28;;;;;;;9.93;4.60;;;7.00;99.90;;;;;;5036358;28;20112;-73
2023/12/12 09:49:55;;;;;;;9.27;4.82;;;7.00;99.90;;;;;;5041321;28;20029;-72
2023/12/12 09:52:22;;;;;;;8.07;4.45;;;7.00;99.90;;;;;;5037168;28;23372;-73
2023/12/12 09:54:49;;;;;;;9.88;5.30;;;7.00;99.90;;;;;;5037978;28;20033;-72
2023/12/12 09:57:17;;;;;;;11.30;5.25;;;7.00;99.90;;;;;;5040907;28;20052;-72
2023/12/12 09:59:43;;;;;;;9.93;5.68;;;7.00;99.90;;;;;;5043357;28;20036;-72
2023/12/12 10:02:15;;;;;;;7.85;4.97;;;7.10;99.90;;;;;;5041667;28;20546;-72
2023/12/12 10:04:42;;;;;;;13.05;6.07;;;7.10;99.90;;;;;;5043413;28;20047;-72
2023/12/12 10:07:08;;;;;;;14.32;5.95;;;7.10;99.90;;;;;;5042050;28;20402;-73
2023/12/12 10:09:34;;;;;;;14.82;6.47;;;7.20;99.90;;;;;;5039267;28;20474;-72
2023/12/12 10:11:59;;;;;;;13.63;6.90;;;7.20;99.90;;;;;;5044933;28;20037;-71
2023/12/12 10:14:36;;;;;;;10.77;6.30;;;7.20;99.90;;;;;;5041540;28;20137;-72
2023/12/12 10:17:06;;;;;;;12.88;5.72;;;7.20;99.90;;;;;;5040900;28;20520;-72
2023/12/12 10:19:32;;;;;;;15.30;6.50;;;7.30;99.90;;;;;;5036980;28;20029;-72
2023/12/12 10:22:05;;;;;;;12.32;5.97;;;7.30;99.90;;;;;;5038736;28;20028;-71
2023/12/12 10:24:30;;;;;;;14.73;7.03;;;7.30;99.90;;;;;;5040796;28;20032;-72
2023/12/12 10:26:56;;;;;;;13.38;7.20;;;7.30;99.90;;;;;;5041550;28;20360;-71
2023/12/12 10:29:22;;;;;;;9.82;6.25;;;7.30;99.90;;;;;;5042652;28;20596;-72
2023/12/12 10:31:48;;;;;;;10.50;6.47;;;7.30;99.90;;;;;;5042870;28;20099;-71
2023/12/12 10:34:13;;;;;;;13.20;6.47;;;7.40;99.90;;;;;;5042847;28;20029;-71
2023/12/12 10:36:42;;;;;;;13.43;6.75;;;7.40;99.90;;;;;;5036909;28;20359;-71
2023/12/12 10:39:14;;;;;;;12.27;6.55;;;7.40;99.90;;;;;;5038494;28;20064;-71
2023/12/12 10:41:40;;;;;;;13.43;6.05;;;7.40;99.90;;;;;;5042600;28;20105;-71
2023/12/12 10:44:08;;;;;;;11.82;5.85;;;7.40;99.90;;;;;;5042503;28;20544;-67
2023/12/12 10:46:37;;;;;;;9.90;5.30;;;7.50;99.90;;;;;;5041293;28;20032;-72
2023/12/12 10:49:02;;;;;;;11.30;5.00;;;7.40;99.90;;;;;;5039733;28;20454;-61
2023/12/12 10:51:28;;;;;;;9.18;4.63;;;7.40;99.90;;;;;;5038304;28;20063;-61
2023/12/12 10:53:55;;;;;;;11.52;4.90;;;7.50;99.90;;;;;;5042144;28;20036;-61
2023/12/12 10:56:21;;;;;;;7.72;4.05;;;7.50;99.90;;;;;;5042156;28;20037;-61
2023/12/12 10:58:48;;;;;;;8.43;4.90;;;7.50;99.90;;;;;;5042336;28;20534;-61
2023/12/12 11:01:15;;;;;;;11.75;5.03;;;7.50;99.90;;;;;;5037868;28;20387;-61
2023/12/12 11:03:41;;;;;;;9.50;4.78;;;7.60;99.90;;;;;;5042151;28;20116;-61
2023/12/12 11:06:10;;;;;;;12.40;5.50;;;7.60;99.90;;;;;;5042399;28;20120;-61
2023/12/12 11:08:36;;;;;;;7.75;5.05;;;7.60;99.90;;;;;;5041897;28;20430;-61
2023/12/12 11:11:09;;;;;;;11.65;4.80;;;7.60;99.90;;;;;;5041878;28;20017;-61
2023/12/12 11:13:36;;;;;;;9.45;4.68;;;7.60;99.90;;;;;;5042141;28;20033;-61
2023/12/12 11:16:05;;;;;;;8.18;4.43;;;7.70;99.90;;;;;;5041547;28;20490;-61
2023/12/12 11:18:31;;;;;;;11.77;4.22;;;7.70;99.90;;;;;;5041780;28;20037;-61
2023/12/12 11:20:57;;;;;;;10.77;4.75;;;7.70;99.90;;;;;;5041710;28;20067;-61
2023/12/12 11:23:53;;;;;;;12.18;5.40;;;7.70;99.90;;;;;;5041669;28;20483;-60
2023/12/12 11:26:25;;;;;;;15.07;5.68;;;7.60;99.90;;;;;;5043615;28;20045;-61
2023/12/12 11:28:52;;;;;;;8.18;4.82;;;7.60;99.90;;;;;;5041644;28;20083;-60
2023/12/12 11:31:26;;;;;;;13.43;4.90;;;7.70;99.90;;;;;;5043531;28;20044;-61
2023/12/12 11:34:03;;;;;;;11.90;4.97;;;7.70;99.90;;;;;;5038316;28;20029;-61
2023/12/12 11:36:46;;;;;;;8.20;4.22;;;7.70;99.90;;;;;;5037820;28;20120;-69
2023/12/12 11:39:12;;;;;;;11.18;4.80;;;7.70;99.90;;;;;;5041810;28;20551;-69
2023/12/12 11:41:38;;;;;;;13.85;5.50;;;7.80;99.90;;;;;;5040988;28;20020;-69
2023/12/12 11:44:05;;;;;;;13.32;5.97;;;7.90;99.90;;;;;;5041115;28;20029;-69
2023/12/12 11:46:31;;;;;;;8.23;4.65;;;8.00;99.90;;;;;;5041249;28;20544;-67
2023/12/12 11:49:17;;;;;;;9.07;5.00;;;8.00;99.90;;;;;;5041112;28;20051;-68
2023/12/12 11:51:49;;;;;;;14.57;5.85;;;8.10;99.90;;;;;;5039902;28;20036;-68
2023/12/12 11:54:23;;;;;;;12.35;7.07;;;8.10;99.90;;;;;;5041085;28;20072;-68
2023/12/12 11:56:58;;;;;;;11.55;6.55;;;8.30;99.90;;;;;;5039683;28;20049;-68
2023/12/12 11:59:25;;;;;;;11.38;5.10;;;8.30;99.90;;;;;;5039503;28;20363;-69
2023/12/12 12:01:51;;;;;;;9.77;5.38;;;8.30;99.90;;;;;;5038951;28;20885;-68
2023/12/12 12:04:17;;;;;;;9.65;5.07;;;8.40;99.90;;;;;;5041065;28;20043;-68
2023/12/12 12:06:43;;;;;;;8.43;4.93;;;8.40;99.90;;;;;;5040910;28;20029;-68
2023/12/12 12:09:11;;;;;;;7.50;5.05;;;8.40;99.90;;;;;;5040779;28;20075;-68
2023/12/12 12:11:37;;;;;;;12.20;5.75;;;8.30;99.90;;;;;;5040858;28;20102;-68
2023/12/12 12:14:03;;;;;;;6.45;4.30;;;8.20;99.90;;;;;;5040753;28;20028;-67
2023/12/12 12:16:29;;;;;;;9.43;4.45;;;8.20;99.90;;;;;;5042474;28;20033;-68
2023/12/12 12:18:54;;;;;;;7.97;4.35;;;8.20;99.90;;;;;;5040505;28;20506;-67
2023/12/12 12:21:24;;;;;;;7.20;4.07;;;8.10;99.90;;;;;;5040573;28;20478;-68
2023/12/12 12:23:50;;;;;;;13.18;4.50;;;8.00;99.90;;;;;;5039484;28;20029;-68
2023/12/12 12:26:15;;;;;;;7.05;4.38;;;8.00;99.90;;;;;;5040416;28;20039;-68
2023/12/12 12:28:41;;;;;;;8.00;4.18;;;7.90;99.90;;;;;;5038394;28;20029;-68
2023/12/12 12:31:07;;;;;;;6.00;3.47;;;7.90;99.90;;;;;;5040339;28;20390;-67
2023/12/12 12:33:34;;;;;;;5.85;3.22;;;7.90;99.90;;;;;;5042533;28;20043;-68
2023/12/12 12:35:59;;;;;;;5.97;3.33;;;7.90;99.90;;;;;;5035647;28;20156;-68
2023/12/12 12:38:26;;;;;;;7.68;3.00;;;7.90;99.90;;;;;;5040445;28;20538;-68
2023/12/12 12:40:51;;;;;;;9.32;3.97;;;8.00;99.90;;;;;;5040328;28;20104;-68
2023/12/12 12:43:18;;;;;;;8.52;3.80;;;8.00;99.90;;;;;;5036138;28;20104;-68
2023/12/12 12:45:46;;;;;;;6.10;3.20;;;8.10;99.90;;;;;;5040328;28;20035;-67
2023/12/12 12:48:12;;;;;;;6.60;3.30;;;8.10;99.90;;;;;;5040215;28;20112;-68
2023/12/12 12:50:42;;;;;;;3.85;3.13;;;8.10;99.90;;;;;;5042144;28;20471;-68